createdAt,value
2022-11-01T00:01:15.822Z,18.90
2022-11-01T00:07:26.745Z,22.20
2022-11-01T00:10:32.775Z,22.40
2022-11-01T00:13:38.952Z,22.50
2022-11-01T00:16:45.762Z,24.40
2022-11-01T00:19:51.883Z,26.20
2022-11-01T00:22:58.046Z,22.70
2022-11-01T00:26:05.282Z,25.30
2022-11-01T00:29:12.429Z,25.30
2022-11-01T00:32:18.529Z,24.70
2022-11-01T00:35:24.651Z,23.60
2022-11-01T00:38:30.664Z,24.10
2022-11-01T00:41:36.889Z,23.30
2022-11-01T00:47:49.353Z,25.20
2022-11-01T00:50:56.110Z,25.20
2022-11-01T00:54:03.008Z,23.50
2022-11-01T00:57:09.127Z,24.50
2022-11-01T01:00:17.104Z,24.60
2022-11-01T01:03:23.541Z,22.80
2022-11-01T01:06:29.711Z,24.60
2022-11-01T01:09:36.223Z,26.10
2022-11-01T01:12:42.303Z,25.20
2022-11-01T01:15:48.472Z,27.50
2022-11-01T01:18:54.551Z,26.60
2022-11-01T01:22:01.209Z,27.70
2022-11-01T01:25:08.744Z,29.00
2022-11-01T01:28:14.878Z,28.40
2022-11-01T01:31:20.918Z,26.30
2022-11-01T01:34:27.113Z,23.70
2022-11-01T01:37:33.293Z,22.00
2022-11-01T01:40:39.401Z,22.20
2022-11-01T01:43:46.544Z,22.10
2022-11-01T01:46:53.001Z,22.10
2022-11-01T01:50:04.201Z,22.10
2022-11-01T01:53:14.469Z,23.30
2022-11-01T01:56:26.252Z,25.50
2022-11-01T01:59:33.778Z,26.30
2022-11-01T02:02:40.226Z,27.60
2022-11-01T02:05:50.811Z,27.10
2022-11-01T02:09:01.353Z,23.70
2022-11-01T02:12:08.053Z,23.90
2022-11-01T02:15:15.571Z,28.80
2022-11-01T02:18:30.087Z,27.10
2022-11-01T02:21:50.073Z,24.30
2022-11-01T02:25:12.933Z,21.50
2022-11-01T02:28:33.862Z,20.80
2022-11-01T02:32:09.925Z,21.10
2022-11-01T02:35:23.967Z,21.10
2022-11-01T02:38:36.177Z,21.30
2022-11-01T02:41:46.429Z,21.70
2022-11-01T02:44:59.237Z,21.50
2022-11-01T02:48:06.811Z,21.60
2022-11-01T02:51:14.554Z,21.10
2022-11-01T02:54:24.869Z,20.20
2022-11-01T02:57:34.958Z,21.00
2022-11-01T03:00:43.025Z,20.90
2022-11-01T03:03:53.331Z,20.60
2022-11-01T03:07:03.749Z,22.80
2022-11-01T03:10:11.390Z,22.80
2022-11-01T03:13:33.742Z,21.40
2022-11-01T03:16:45.111Z,21.10
2022-11-01T03:20:00.208Z,19.90
2022-11-01T03:23:08.294Z,21.50
2022-11-01T03:26:18.860Z,20.50
2022-11-01T03:29:27.605Z,18.30
2022-11-01T03:32:39.718Z,19.40
2022-11-01T03:35:49.882Z,18.80
2022-11-01T03:39:03.485Z,18.70
2022-11-01T03:42:13.078Z,17.90
2022-11-01T03:45:25.555Z,18.00
2022-11-01T03:48:31.909Z,18.00
2022-11-01T03:54:42.585Z,15.90
2022-11-01T03:57:49.789Z,15.50
2022-11-01T04:00:55.948Z,16.40
2022-11-01T04:04:02.201Z,16.30
2022-11-01T04:07:08.375Z,18.20
2022-11-01T04:10:14.851Z,18.60
2022-11-01T04:13:21.111Z,18.90
2022-11-01T04:16:44.692Z,19.10
2022-11-01T04:20:08.364Z,18.40
2022-11-01T04:23:14.528Z,18.50
2022-11-01T04:26:22.637Z,18.80
2022-11-01T04:29:29.493Z,19.30
2022-11-01T04:32:35.545Z,19.60
2022-11-01T04:35:42.025Z,18.80
2022-11-01T04:38:49.653Z,19.40
2022-11-01T04:41:55.694Z,18.90
2022-11-01T04:45:01.726Z,19.10
2022-11-01T04:48:12.822Z,18.60
2022-11-01T04:51:18.977Z,18.90
2022-11-01T04:54:25.292Z,17.80
2022-11-01T05:00:36.489Z,16.70
2022-11-01T05:03:42.793Z,17.00
2022-11-01T05:06:48.966Z,14.90
2022-11-01T05:09:54.998Z,15.30
2022-11-01T05:13:01.493Z,15.40
2022-11-01T05:16:24.450Z,14.70
2022-11-01T05:19:30.669Z,14.10
2022-11-01T05:22:36.730Z,13.30
2022-11-01T05:25:42.995Z,13.20
2022-11-01T05:28:49.233Z,13.80
2022-11-01T05:34:59.952Z,14.40
2022-11-01T05:38:06.949Z,13.40
2022-11-01T05:44:24.148Z,14.30
2022-11-01T05:47:30.340Z,14.70
2022-11-01T05:50:36.485Z,13.60
2022-11-01T05:53:43.210Z,14.40
2022-11-01T05:56:49.455Z,15.10
2022-11-01T05:59:55.585Z,15.60
2022-11-01T06:03:02.312Z,16.00
2022-11-01T06:06:09.525Z,16.00
2022-11-01T06:09:15.604Z,17.10
2022-11-01T06:12:23.906Z,16.20
2022-11-01T06:15:33.061Z,16.50
2022-11-01T06:18:41.871Z,14.40
2022-11-01T06:21:47.946Z,14.00
2022-11-01T06:24:54.010Z,14.50
2022-11-01T06:28:00.288Z,13.80
2022-11-01T06:31:07.419Z,13.70
2022-11-01T06:34:13.599Z,16.20
2022-11-01T06:37:20.022Z,15.50
2022-11-01T06:40:26.097Z,16.70
2022-11-01T06:43:32.210Z,16.20
2022-11-01T06:46:38.290Z,16.40
2022-11-01T06:49:44.554Z,17.50
2022-11-01T06:55:55.308Z,17.00
2022-11-01T07:02:08.907Z,19.10
2022-11-01T07:05:18.842Z,17.70
2022-11-01T07:11:31.718Z,18.00
2022-11-01T07:14:38.134Z,19.50
2022-11-01T07:17:45.853Z,20.40
2022-11-01T07:20:51.928Z,20.30
2022-11-01T07:23:57.906Z,21.40
2022-11-01T07:27:04.043Z,20.80
2022-11-01T07:30:13.690Z,22.40
2022-11-01T07:33:19.950Z,22.50
2022-11-01T07:36:25.928Z,33.60
2022-11-01T07:39:31.985Z,37.30
2022-11-01T07:42:44.153Z,47.40
2022-11-01T07:45:50.588Z,35.70
2022-11-01T07:48:56.695Z,32.30
2022-11-01T07:52:04.332Z,31.40
2022-11-01T07:55:11.919Z,32.20
2022-11-01T07:58:18.867Z,32.50
2022-11-01T08:01:25.028Z,32.00
2022-11-01T08:07:40.804Z,36.50
2022-11-01T08:10:47.475Z,31.30
2022-11-01T08:13:53.576Z,31.70
2022-11-01T08:17:01.924Z,31.70
2022-11-01T08:20:10.257Z,31.70
2022-11-01T08:23:16.520Z,31.40
2022-11-01T08:29:27.301Z,30.80
2022-11-01T08:32:33.356Z,29.30
2022-11-01T08:35:39.436Z,31.00
2022-11-01T08:38:45.601Z,32.00
2022-11-01T08:41:52.651Z,31.80
2022-11-01T08:44:58.806Z,31.20
2022-11-01T08:51:11.590Z,30.30
2022-11-01T08:57:22.148Z,29.40
2022-11-01T09:00:28.182Z,26.30
2022-11-01T09:03:34.367Z,25.50
2022-11-01T09:09:45.065Z,23.90
2022-11-01T09:15:59.941Z,23.30
2022-11-01T09:19:08.562Z,26.00
2022-11-01T09:22:14.702Z,25.50
2022-11-01T09:25:21.438Z,25.70
2022-11-01T09:28:30.132Z,25.70
2022-11-01T09:31:39.789Z,26.30
2022-11-01T09:34:49.163Z,26.70
2022-11-01T09:38:01.524Z,26.40
2022-11-01T09:41:14.295Z,26.70
2022-11-01T09:44:24.910Z,25.80
2022-11-01T09:47:33.962Z,25.70
2022-11-01T09:50:43.930Z,25.40
2022-11-01T09:53:51.294Z,23.80
2022-11-01T09:57:07.455Z,23.50
2022-11-01T10:00:19.213Z,23.50
2022-11-01T10:03:44.510Z,23.10
2022-11-01T10:06:56.144Z,23.60
2022-11-01T10:10:18.461Z,22.90
2022-11-01T10:13:36.294Z,22.60
2022-11-01T10:16:49.508Z,23.80
2022-11-01T10:19:55.859Z,22.70
2022-11-01T10:23:03.610Z,23.10
2022-11-01T10:26:14.676Z,23.40
2022-11-01T10:29:29.454Z,22.60
2022-11-01T10:32:40.720Z,23.20
2022-11-01T10:35:52.557Z,24.20
2022-11-01T10:42:31.983Z,24.10
2022-11-01T10:45:39.151Z,23.40
2022-11-01T10:48:49.822Z,25.30
2022-11-01T10:52:00.436Z,24.20
2022-11-01T10:55:12.303Z,24.00
2022-11-01T10:58:39.049Z,23.80
2022-11-01T11:01:47.345Z,24.00
2022-11-01T11:04:53.754Z,24.30
2022-11-01T11:08:03.801Z,25.40
2022-11-01T11:11:15.299Z,24.90
2022-11-01T11:14:22.874Z,25.10
2022-11-01T11:17:36.106Z,27.30
2022-11-01T11:20:42.378Z,25.40
2022-11-01T11:23:49.639Z,25.70
2022-11-01T11:26:58.050Z,26.60
2022-11-01T11:30:06.438Z,25.70
2022-11-01T11:33:20.077Z,26.30
2022-11-01T11:36:34.083Z,24.80
2022-11-01T11:39:40.826Z,27.40
2022-11-01T11:42:48.840Z,29.40
2022-11-01T11:46:08.958Z,27.30
2022-11-01T11:49:29.089Z,26.80
2022-11-01T11:52:38.920Z,26.90
2022-11-01T11:55:47.774Z,27.70
2022-11-01T11:58:54.106Z,26.70
2022-11-01T12:02:02.751Z,26.50
2022-11-01T12:05:11.374Z,26.10
2022-11-01T12:08:34.163Z,27.30
2022-11-01T12:11:47.724Z,27.50
2022-11-01T12:14:54.487Z,25.80
2022-11-01T12:18:14.710Z,24.90
2022-11-01T12:21:25.696Z,24.80
2022-11-01T12:24:41.753Z,24.20
2022-11-01T12:27:55.119Z,24.40
2022-11-01T12:31:07.005Z,23.90
2022-11-01T12:34:19.816Z,22.60
2022-11-01T12:37:32.636Z,24.30
2022-11-01T12:40:41.362Z,24.70
2022-11-01T12:44:00.223Z,23.60
2022-11-01T12:47:12.344Z,23.50
2022-11-01T12:50:24.130Z,23.60
2022-11-01T12:53:35.230Z,23.10
2022-11-01T12:56:41.359Z,21.70
2022-11-01T13:03:06.702Z,21.80
2022-11-01T13:06:25.294Z,20.20
2022-11-01T13:09:38.285Z,20.70
2022-11-01T13:12:54.386Z,20.60
2022-11-01T13:16:07.601Z,20.50
2022-11-01T13:19:19.705Z,20.10
2022-11-01T13:22:33.887Z,19.30
2022-11-01T13:25:46.574Z,20.80
2022-11-01T13:29:00.378Z,20.10
2022-11-01T13:32:13.787Z,20.20
2022-11-01T13:35:38.955Z,20.70
2022-11-01T13:38:50.344Z,20.90
2022-11-01T13:42:03.078Z,19.80
2022-11-01T13:45:37.897Z,21.80
2022-11-01T13:49:04.546Z,20.20
2022-11-01T13:52:17.432Z,18.60
2022-11-01T13:55:29.774Z,19.90
2022-11-01T13:58:36.150Z,20.30
2022-11-01T14:01:42.540Z,20.80
2022-11-01T14:04:58.547Z,19.70
2022-11-01T14:08:27.270Z,19.30
2022-11-01T14:11:52.112Z,19.50
2022-11-01T14:15:15.469Z,19.60
2022-11-01T14:18:21.658Z,18.90
2022-11-01T14:21:32.558Z,17.30
2022-11-01T14:24:56.070Z,17.80
2022-11-01T14:28:24.994Z,17.80
2022-11-01T14:31:34.374Z,16.80
2022-11-01T14:34:41.753Z,17.40
2022-11-01T14:37:51.573Z,16.30
2022-11-01T14:40:59.766Z,17.00
2022-11-01T14:44:12.471Z,17.10
2022-11-01T14:47:29.248Z,16.10
2022-11-01T14:50:45.609Z,15.80
2022-11-01T14:53:59.594Z,16.10
2022-11-01T14:57:20.008Z,17.30
2022-11-01T15:00:30.028Z,16.60
2022-11-01T15:03:36.238Z,15.80
2022-11-01T15:06:45.102Z,15.90
2022-11-01T15:10:02.119Z,16.50
2022-11-01T15:13:08.341Z,15.90
2022-11-01T15:16:21.770Z,17.10
2022-11-01T15:19:33.913Z,16.30
2022-11-01T15:22:40.698Z,15.20
2022-11-01T15:25:54.118Z,15.70
2022-11-01T15:29:02.516Z,15.40
2022-11-01T15:32:21.811Z,15.40
2022-11-01T15:35:30.493Z,15.70
2022-11-01T15:38:51.885Z,14.70
2022-11-01T15:41:58.386Z,15.40
2022-11-01T15:45:23.065Z,14.70
2022-11-01T15:48:32.273Z,14.80
2022-11-01T15:51:43.769Z,15.20
2022-11-01T15:54:55.032Z,15.90
2022-11-01T15:58:07.015Z,15.70
2022-11-01T16:01:16.964Z,17.60
2022-11-01T16:04:24.354Z,16.80
2022-11-01T16:07:34.614Z,16.00
2022-11-01T16:10:45.537Z,16.70
2022-11-01T16:13:54.718Z,16.20
2022-11-01T16:17:03.278Z,15.40
2022-11-01T16:20:30.294Z,16.70
2022-11-01T16:23:36.526Z,14.70
2022-11-01T16:30:08.470Z,15.20
2022-11-01T16:33:22.305Z,15.00
2022-11-01T16:36:42.941Z,17.00
2022-11-01T16:39:49.416Z,15.20
2022-11-01T16:42:57.059Z,14.30
2022-11-01T16:46:04.788Z,12.90
2022-11-01T16:49:22.897Z,14.90
2022-11-01T16:52:29.051Z,15.20
2022-11-01T16:58:42.939Z,15.90
2022-11-01T17:01:50.148Z,15.20
2022-11-01T17:05:04.420Z,18.90
2022-11-01T17:08:13.070Z,15.50
2022-11-01T17:11:19.146Z,15.90
2022-11-01T17:14:26.544Z,14.30
2022-11-01T17:17:33.478Z,13.80
2022-11-01T17:20:42.286Z,13.80
2022-11-01T17:23:48.853Z,14.00
2022-11-01T17:26:58.065Z,12.70
2022-11-01T17:30:05.122Z,15.00
2022-11-01T17:33:11.229Z,14.40
2022-11-01T17:36:18.281Z,14.20
2022-11-01T17:39:24.916Z,16.90
2022-11-01T17:42:31.287Z,17.20
2022-11-01T17:45:38.267Z,15.10
2022-11-01T17:48:44.519Z,13.90
2022-11-01T17:55:00.824Z,13.30
2022-11-01T17:58:07.927Z,15.40
2022-11-01T18:01:16.801Z,12.10
2022-11-01T18:04:23.066Z,13.60
2022-11-01T18:10:44.818Z,14.90
2022-11-01T18:14:03.403Z,14.70
2022-11-01T18:17:26.126Z,15.30
2022-11-01T18:20:43.739Z,13.60
2022-11-01T18:23:51.463Z,13.10
2022-11-01T18:26:59.050Z,14.10
2022-11-01T18:30:12.855Z,13.00
2022-11-01T18:33:23.620Z,13.30
2022-11-01T18:36:35.521Z,13.50
2022-11-01T18:39:46.891Z,16.80
2022-11-01T18:42:54.708Z,12.90
2022-11-01T18:49:30.342Z,13.60
2022-11-01T18:52:36.510Z,15.60
2022-11-01T18:58:47.132Z,13.40
2022-11-01T19:01:56.493Z,14.60
2022-11-01T19:05:15.138Z,14.20
2022-11-01T19:08:25.943Z,13.60
2022-11-01T19:11:32.806Z,13.20
2022-11-01T19:14:40.245Z,12.80
2022-11-01T19:17:48.036Z,14.10
2022-11-01T19:20:55.609Z,13.40
2022-11-01T19:24:10.076Z,16.70
2022-11-01T19:27:22.033Z,24.90
2022-11-01T19:30:30.031Z,21.90
2022-11-01T19:33:38.537Z,18.60
2022-11-01T19:36:45.847Z,20.40
2022-11-01T19:39:52.320Z,15.50
2022-11-01T19:43:01.327Z,15.40
2022-11-01T19:46:12.747Z,14.60
2022-11-01T19:49:29.637Z,13.90
2022-11-01T19:52:40.129Z,15.60
2022-11-01T19:55:53.492Z,15.40
2022-11-01T19:59:03.811Z,17.30
2022-11-01T20:02:21.066Z,18.60
2022-11-01T20:05:33.242Z,18.10
2022-11-01T20:08:40.594Z,18.30
2022-11-01T20:11:46.737Z,19.00
2022-11-01T20:14:52.758Z,16.10
2022-11-01T20:17:59.025Z,15.30
2022-11-01T20:24:12.600Z,14.90
2022-11-01T20:27:18.887Z,15.00
2022-11-01T20:33:29.516Z,14.90
2022-11-01T20:36:35.696Z,16.10
2022-11-01T20:39:41.786Z,17.30
2022-11-01T20:42:47.946Z,16.00
2022-11-01T20:45:54.190Z,16.50
2022-11-01T20:52:33.709Z,16.70
2022-11-01T20:55:31.828Z,17.90
2022-11-01T20:58:40.689Z,16.50
2022-11-01T21:01:47.144Z,16.20
2022-11-01T21:05:01.513Z,15.60
2022-11-01T21:08:16.447Z,17.70
2022-11-01T21:11:43.928Z,16.90
2022-11-01T21:14:51.141Z,15.90
2022-11-01T21:18:03.212Z,16.20
2022-11-01T21:21:36.328Z,16.80
2022-11-01T21:24:46.281Z,16.10
2022-11-01T21:27:53.594Z,16.30
2022-11-01T21:31:03.165Z,15.20
2022-11-01T21:34:26.186Z,14.30
2022-11-01T21:37:32.377Z,15.40
2022-11-01T21:40:38.554Z,14.80
2022-11-01T21:43:46.176Z,15.20
2022-11-01T21:46:54.402Z,16.20
2022-11-01T21:50:00.774Z,16.40
2022-11-01T21:56:12.491Z,16.30
2022-11-01T21:59:18.689Z,16.80
2022-11-01T22:02:24.985Z,18.30
2022-11-01T22:05:31.137Z,18.20
2022-11-01T22:08:37.745Z,18.90
2022-11-01T22:11:43.989Z,19.10
2022-11-01T22:14:50.019Z,19.30
2022-11-01T22:17:56.093Z,21.40
2022-11-01T22:21:02.094Z,18.90
2022-11-01T22:24:09.425Z,19.10
2022-11-01T22:27:15.740Z,18.40
2022-11-01T22:33:27.073Z,17.80
2022-11-01T22:36:35.962Z,20.80
2022-11-01T22:39:42.261Z,19.60
2022-11-01T22:45:56.047Z,17.50
2022-11-01T22:49:11.037Z,17.40
2022-11-01T22:52:22.051Z,18.70
2022-11-01T22:55:28.954Z,16.80
2022-11-01T22:58:39.091Z,16.90
2022-11-01T23:01:45.942Z,21.40
2022-11-01T23:04:56.130Z,20.90
2022-11-01T23:08:14.170Z,21.70
2022-11-01T23:11:46.972Z,18.70
2022-11-01T23:14:55.517Z,19.30
2022-11-01T23:18:13.017Z,17.20
2022-11-01T23:21:20.709Z,18.10
2022-11-01T23:24:28.485Z,20.30
2022-11-01T23:27:35.084Z,18.00
2022-11-01T23:30:42.680Z,18.70
2022-11-01T23:33:50.586Z,17.20
2022-11-01T23:36:56.797Z,18.00
2022-11-01T23:40:02.966Z,16.70
2022-11-01T23:43:23.840Z,17.40
2022-11-01T23:46:30.379Z,17.00
2022-11-01T23:49:37.175Z,17.70
2022-11-01T23:52:45.879Z,18.30
2022-11-01T23:55:55.744Z,18.20
2022-11-01T23:59:05.394Z,17.80
